sensor_id;sensor_type;location;lat;lon;timestamp;temperature;humidity
7588;DHT22;3835;48.850;8.938;2022-10-31T00:01:23;12.80;99.90
7588;DHT22;3835;48.850;8.938;2022-10-31T00:03:52;12.80;99.90
7588;DHT22;3835;48.850;8.938;2022-10-31T00:06:19;12.80;99.90
7588;DHT22;3835;48.850;8.938;2022-10-31T00:08:46;12.80;99.90
7588;DHT22;3835;48.850;8.938;2022-10-31T00:11:13;12.80;99.90
7588;DHT22;3835;48.850;8.938;2022-10-31T00:13:41;12.70;99.90
7588;DHT22;3835;48.850;8.938;2022-10-31T00:16:14;12.70;99.90
7588;DHT22;3835;48.850;8.938;2022-10-31T00:18:41;12.70;99.90
7588;DHT22;3835;48.850;8.938;2022-10-31T00:21:07;12.70;99.90
7588;DHT22;3835;48.850;8.938;2022-10-31T00:23:34;12.70;99.90
7588;DHT22;3835;48.850;8.938;2022-10-31T00:26:02;12.50;99.90
7588;DHT22;3835;48.850;8.938;2022-10-31T00:28:29;12.20;99.90
7588;DHT22;3835;48.850;8.938;2022-10-31T00:30:59;11.80;99.90
7588;DHT22;3835;48.850;8.938;2022-10-31T00:33:26;11.80;99.90
7588;DHT22;3835;48.850;8.938;2022-10-31T00:35:53;11.70;99.90
7588;DHT22;3835;48.850;8.938;2022-10-31T00:38:21;11.60;99.90
7588;DHT22;3835;48.850;8.938;2022-10-31T00:40:47;11.60;99.90
7588;DHT22;3835;48.850;8.938;2022-10-31T00:43:14;11.50;99.90
7588;DHT22;3835;48.850;8.938;2022-10-31T00:45:41;11.50;99.90
7588;DHT22;3835;48.850;8.938;2022-10-31T00:48:09;11.60;99.90
7588;DHT22;3835;48.850;8.938;2022-10-31T00:50:37;11.60;99.90
7588;DHT22;3835;48.850;8.938;2022-10-31T00:53:04;11.70;99.90
7588;DHT22;3835;48.850;8.938;2022-10-31T00:55:31;11.70;99.90
7588;DHT22;3835;48.850;8.938;2022-10-31T00:57:58;11.70;99.90
7588;DHT22;3835;48.850;8.938;2022-10-31T01:00:25;11.70;99.90
7588;DHT22;3835;48.850;8.938;2022-10-31T01:02:52;11.60;99.90
7588;DHT22;3835;48.850;8.938;2022-10-31T01:05:20;11.60;99.90
7588;DHT22;3835;48.850;8.938;2022-10-31T01:07:46;11.60;99.90
7588;DHT22;3835;48.850;8.938;2022-10-31T01:10:13;11.60;99.90
7588;DHT22;3835;48.850;8.938;2022-10-31T01:12:41;11.50;99.90
7588;DHT22;3835;48.850;8.938;2022-10-31T01:15:10;11.60;99.90
7588;DHT22;3835;48.850;8.938;2022-10-31T01:17:37;11.60;99.90
7588;DHT22;3835;48.850;8.938;2022-10-31T01:20:06;11.60;99.90
7588;DHT22;3835;48.850;8.938;2022-10-31T01:22:35;11.70;99.90
7588;DHT22;3835;48.850;8.938;2022-10-31T01:25:02;11.80;99.90
7588;DHT22;3835;48.850;8.938;2022-10-31T01:27:28;11.80;99.90
7588;DHT22;3835;48.850;8.938;2022-10-31T01:29:55;11.70;99.90
7588;DHT22;3835;48.850;8.938;2022-10-31T01:32:22;11.70;99.90
7588;DHT22;3835;48.850;8.938;2022-10-31T01:34:49;11.70;99.90
7588;DHT22;3835;48.850;8.938;2022-10-31T01:37:15;11.60;99.90
7588;DHT22;3835;48.850;8.938;2022-10-31T01:39:44;11.60;99.90
7588;DHT22;3835;48.850;8.938;2022-10-31T01:42:17;11.60;99.90
7588;DHT22;3835;48.850;8.938;2022-10-31T01:44:54;11.60;99.90
7588;DHT22;3835;48.850;8.938;2022-10-31T01:47:32;11.70;99.90
7588;DHT22;3835;48.850;8.938;2022-10-31T01:50:02;11.70;99.90
7588;DHT22;3835;48.850;8.938;2022-10-31T01:52:32;11.70;99.90
7588;DHT22;3835;48.850;8.938;2022-10-31T01:55:07;11.60;99.90
7588;DHT22;3835;48.850;8.938;2022-10-31T01:57:37;11.70;99.90
7588;DHT22;3835;48.850;8.938;2022-10-31T02:00:08;11.70;99.90
7588;DHT22;3835;48.850;8.938;2022-10-31T02:02:35;11.80;99.90
7588;DHT22;3835;48.850;8.938;2022-10-31T02:05:05;11.70;99.90
7588;DHT22;3835;48.850;8.938;2022-10-31T02:07:38;11.70;99.90
7588;DHT22;3835;48.850;8.938;2022-10-31T02:10:07;11.60;99.90
7588;DHT22;3835;48.850;8.938;2022-10-31T02:12:34;11.60;99.90
7588;DHT22;3835;48.850;8.938;2022-10-31T02:15:04;11.60;99.90
7588;DHT22;3835;48.850;8.938;2022-10-31T02:17:31;11.50;99.90
7588;DHT22;3835;48.850;8.938;2022-10-31T02:20:09;11.50;99.90
7588;DHT22;3835;48.850;8.938;2022-10-31T02:22:43;11.50;99.90
7588;DHT22;3835;48.850;8.938;2022-10-31T02:25:27;11.50;99.90
7588;DHT22;3835;48.850;8.938;2022-10-31T02:28:29;11.50;99.90
7588;DHT22;3835;48.850;8.938;2022-10-31T02:31:13;11.50;99.90
7588;DHT22;3835;48.850;8.938;2022-10-31T02:33:49;11.40;99.90
7588;DHT22;3835;48.850;8.938;2022-10-31T02:36:21;11.40;99.90
7588;DHT22;3835;48.850;8.938;2022-10-31T02:38:55;11.30;99.90
7588;DHT22;3835;48.850;8.938;2022-10-31T02:41:28;11.30;99.90
7588;DHT22;3835;48.850;8.938;2022-10-31T02:44:05;11.20;99.90
7588;DHT22;3835;48.850;8.938;2022-10-31T02:46:39;11.20;99.90
7588;DHT22;3835;48.850;8.938;2022-10-31T02:49:11;11.20;99.90
7588;DHT22;3835;48.850;8.938;2022-10-31T02:51:39;11.10;99.90
7588;DHT22;3835;48.850;8.938;2022-10-31T02:54:17;11.10;99.90
7588;DHT22;3835;48.850;8.938;2022-10-31T02:56:44;11.10;99.90
7588;DHT22;3835;48.850;8.938;2022-10-31T02:59:11;11.00;99.90
7588;DHT22;3835;48.850;8.938;2022-10-31T03:05:02;11.00;99.90
7588;DHT22;3835;48.850;8.938;2022-10-31T03:07:38;11.00;99.90
7588;DHT22;3835;48.850;8.938;2022-10-31T03:10:16;11.00;99.90
7588;DHT22;3835;48.850;8.938;2022-10-31T03:12:49;11.00;99.90
7588;DHT22;3835;48.850;8.938;2022-10-31T03:15:24;11.00;99.90
7588;DHT22;3835;48.850;8.938;2022-10-31T03:17:56;11.00;99.90
7588;DHT22;3835;48.850;8.938;2022-10-31T03:20:31;10.90;99.90
7588;DHT22;3835;48.850;8.938;2022-10-31T03:23:00;10.90;99.90
7588;DHT22;3835;48.850;8.938;2022-10-31T03:25:29;10.80;99.90
7588;DHT22;3835;48.850;8.938;2022-10-31T03:27:58;10.80;99.90
7588;DHT22;3835;48.850;8.938;2022-10-31T03:30:27;10.80;99.90
7588;DHT22;3835;48.850;8.938;2022-10-31T03:32:55;10.70;99.90
7588;DHT22;3835;48.850;8.938;2022-10-31T03:35:24;10.70;99.90
7588;DHT22;3835;48.850;8.938;2022-10-31T03:37:54;10.70;99.90
7588;DHT22;3835;48.850;8.938;2022-10-31T03:40:23;10.60;99.90
7588;DHT22;3835;48.850;8.938;2022-10-31T03:42:56;10.60;99.90
7588;DHT22;3835;48.850;8.938;2022-10-31T03:45:26;10.60;99.90
7588;DHT22;3835;48.850;8.938;2022-10-31T03:47:54;10.60;99.90
7588;DHT22;3835;48.850;8.938;2022-10-31T03:50:22;10.50;99.90
7588;DHT22;3835;48.850;8.938;2022-10-31T03:52:56;10.50;99.90
7588;DHT22;3835;48.850;8.938;2022-10-31T03:55:28;10.40;99.90
7588;DHT22;3835;48.850;8.938;2022-10-31T03:57:59;10.40;99.90
7588;DHT22;3835;48.850;8.938;2022-10-31T04:00:30;10.40;99.90
7588;DHT22;3835;48.850;8.938;2022-10-31T04:03:01;10.40;99.90
7588;DHT22;3835;48.850;8.938;2022-10-31T04:05:31;10.40;99.90
7588;DHT22;3835;48.850;8.938;2022-10-31T04:08:01;10.40;99.90
7588;DHT22;3835;48.850;8.938;2022-10-31T04:10:30;10.40;99.90
7588;DHT22;3835;48.850;8.938;2022-10-31T04:13:01;10.30;99.90
7588;DHT22;3835;48.850;8.938;2022-10-31T04:15:31;10.20;99.90
7588;DHT22;3835;48.850;8.938;2022-10-31T04:17:59;10.20;99.90
7588;DHT22;3835;48.850;8.938;2022-10-31T04:20:30;10.30;99.90
7588;DHT22;3835;48.850;8.938;2022-10-31T04:22:57;10.40;99.90
7588;DHT22;3835;48.850;8.938;2022-10-31T04:25:26;10.30;99.90
7588;DHT22;3835;48.850;8.938;2022-10-31T04:27:52;10.30;99.90
7588;DHT22;3835;48.850;8.938;2022-10-31T04:30:19;10.30;99.90
7588;DHT22;3835;48.850;8.938;2022-10-31T04:32:46;10.30;99.90
7588;DHT22;3835;48.850;8.938;2022-10-31T04:35:13;10.30;99.90
7588;DHT22;3835;48.850;8.938;2022-10-31T04:37:41;10.30;99.90
7588;DHT22;3835;48.850;8.938;2022-10-31T04:40:09;10.40;99.90
7588;DHT22;3835;48.850;8.938;2022-10-31T04:42:37;10.40;99.90
7588;DHT22;3835;48.850;8.938;2022-10-31T04:45:05;10.50;99.90
7588;DHT22;3835;48.850;8.938;2022-10-31T04:47:32;10.50;99.90
7588;DHT22;3835;48.850;8.938;2022-10-31T04:49:59;10.50;99.90
7588;DHT22;3835;48.850;8.938;2022-10-31T04:52:25;10.30;99.90
7588;DHT22;3835;48.850;8.938;2022-10-31T04:54:52;10.30;99.90
7588;DHT22;3835;48.850;8.938;2022-10-31T04:57:19;10.30;99.90
7588;DHT22;3835;48.850;8.938;2022-10-31T04:59:47;10.30;99.90
7588;DHT22;3835;48.850;8.938;2022-10-31T05:02:14;10.30;99.90
7588;DHT22;3835;48.850;8.938;2022-10-31T05:04:41;10.30;99.90
7588;DHT22;3835;48.850;8.938;2022-10-31T05:07:07;10.30;99.90
7588;DHT22;3835;48.850;8.938;2022-10-31T05:09:34;10.30;99.90
7588;DHT22;3835;48.850;8.938;2022-10-31T05:12:01;10.30;99.90
7588;DHT22;3835;48.850;8.938;2022-10-31T05:14:28;10.30;99.90
7588;DHT22;3835;48.850;8.938;2022-10-31T05:16:56;10.30;99.90
7588;DHT22;3835;48.850;8.938;2022-10-31T05:19:22;10.30;99.90
7588;DHT22;3835;48.850;8.938;2022-10-31T05:21:49;10.30;99.90
7588;DHT22;3835;48.850;8.938;2022-10-31T05:24:16;10.30;99.90
7588;DHT22;3835;48.850;8.938;2022-10-31T05:26:43;10.20;99.90
7588;DHT22;3835;48.850;8.938;2022-10-31T05:29:09;10.20;99.90
7588;DHT22;3835;48.850;8.938;2022-10-31T05:31:36;10.20;99.90
7588;DHT22;3835;48.850;8.938;2022-10-31T05:34:04;10.20;99.90
7588;DHT22;3835;48.850;8.938;2022-10-31T05:36:31;10.20;99.90
7588;DHT22;3835;48.850;8.938;2022-10-31T05:38:58;10.20;99.90
7588;DHT22;3835;48.850;8.938;2022-10-31T05:41:25;10.30;99.90
7588;DHT22;3835;48.850;8.938;2022-10-31T05:43:51;10.40;99.90
7588;DHT22;3835;48.850;8.938;2022-10-31T05:46:18;10.40;99.90
7588;DHT22;3835;48.850;8.938;2022-10-31T05:48:45;10.30;99.90
7588;DHT22;3835;48.850;8.938;2022-10-31T05:51:13;10.20;99.90
7588;DHT22;3835;48.850;8.938;2022-10-31T05:53:40;10.00;99.90
7588;DHT22;3835;48.850;8.938;2022-10-31T05:56:07;10.00;99.90
7588;DHT22;3835;48.850;8.938;2022-10-31T05:58:34;10.00;99.90
7588;DHT22;3835;48.850;8.938;2022-10-31T06:01:00;9.90;99.90
7588;DHT22;3835;48.850;8.938;2022-10-31T06:03:27;10.00;99.90
7588;DHT22;3835;48.850;8.938;2022-10-31T06:05:54;10.10;99.90
7588;DHT22;3835;48.850;8.938;2022-10-31T06:08:22;10.20;99.90
7588;DHT22;3835;48.850;8.938;2022-10-31T06:10:49;10.20;99.90
7588;DHT22;3835;48.850;8.938;2022-10-31T06:13:15;10.30;99.90
7588;DHT22;3835;48.850;8.938;2022-10-31T06:15:42;10.20;99.90
7588;DHT22;3835;48.850;8.938;2022-10-31T06:18:09;10.30;99.90
7588;DHT22;3835;48.850;8.938;2022-10-31T06:20:36;10.20;99.90
7588;DHT22;3835;48.850;8.938;2022-10-31T06:23:03;10.20;99.90
7588;DHT22;3835;48.850;8.938;2022-10-31T06:25:31;10.30;99.90
7588;DHT22;3835;48.850;8.938;2022-10-31T06:27:59;10.40;99.90
7588;DHT22;3835;48.850;8.938;2022-10-31T06:30:26;10.40;99.90
7588;DHT22;3835;48.850;8.938;2022-10-31T06:32:53;10.40;99.90
7588;DHT22;3835;48.850;8.938;2022-10-31T06:35:20;10.50;99.90
7588;DHT22;3835;48.850;8.938;2022-10-31T06:37:51;10.40;99.90
7588;DHT22;3835;48.850;8.938;2022-10-31T06:43:20;10.50;99.90
7588;DHT22;3835;48.850;8.938;2022-10-31T06:45:47;10.70;99.90
7588;DHT22;3835;48.850;8.938;2022-10-31T06:48:14;10.70;99.90
7588;DHT22;3835;48.850;8.938;2022-10-31T06:50:40;10.80;99.90
7588;DHT22;3835;48.850;8.938;2022-10-31T06:53:08;10.80;99.90
7588;DHT22;3835;48.850;8.938;2022-10-31T06:55:35;10.90;99.90
7588;DHT22;3835;48.850;8.938;2022-10-31T06:58:02;10.90;99.90
7588;DHT22;3835;48.850;8.938;2022-10-31T07:00:30;11.00;99.90
7588;DHT22;3835;48.850;8.938;2022-10-31T07:02:58;11.10;99.90
7588;DHT22;3835;48.850;8.938;2022-10-31T07:05:27;11.20;99.90
7588;DHT22;3835;48.850;8.938;2022-10-31T07:07:54;11.40;99.90
7588;DHT22;3835;48.850;8.938;2022-10-31T07:10:21;11.30;99.90
7588;DHT22;3835;48.850;8.938;2022-10-31T07:12:48;11.30;99.90
7588;DHT22;3835;48.850;8.938;2022-10-31T07:15:15;11.30;99.90
7588;DHT22;3835;48.850;8.938;2022-10-31T07:17:43;11.40;99.90
7588;DHT22;3835;48.850;8.938;2022-10-31T07:20:10;11.40;99.90
7588;DHT22;3835;48.850;8.938;2022-10-31T07:22:37;11.40;99.90
7588;DHT22;3835;48.850;8.938;2022-10-31T07:25:04;11.50;99.90
7588;DHT22;3835;48.850;8.938;2022-10-31T07:27:35;11.60;99.90
7588;DHT22;3835;48.850;8.938;2022-10-31T07:30:04;11.70;99.90
7588;DHT22;3835;48.850;8.938;2022-10-31T07:32:37;11.80;99.90
7588;DHT22;3835;48.850;8.938;2022-10-31T07:35:06;12.00;99.90
7588;DHT22;3835;48.850;8.938;2022-10-31T07:37:33;11.90;99.90
7588;DHT22;3835;48.850;8.938;2022-10-31T07:40:00;11.80;99.90
7588;DHT22;3835;48.850;8.938;2022-10-31T07:42:27;11.80;99.90
7588;DHT22;3835;48.850;8.938;2022-10-31T07:44:54;11.90;99.90
7588;DHT22;3835;48.850;8.938;2022-10-31T07:47:20;11.80;99.90
7588;DHT22;3835;48.850;8.938;2022-10-31T07:49:47;12.00;99.90
7588;DHT22;3835;48.850;8.938;2022-10-31T07:52:15;12.20;99.90
7588;DHT22;3835;48.850;8.938;2022-10-31T07:54:42;12.30;99.90
7588;DHT22;3835;48.850;8.938;2022-10-31T07:57:09;12.40;99.90
7588;DHT22;3835;48.850;8.938;2022-10-31T07:59:36;12.50;99.90
7588;DHT22;3835;48.850;8.938;2022-10-31T08:02:02;12.50;99.90
7588;DHT22;3835;48.850;8.938;2022-10-31T08:04:29;12.60;99.90
7588;DHT22;3835;48.850;8.938;2022-10-31T08:06:56;12.80;99.90
7588;DHT22;3835;48.850;8.938;2022-10-31T08:09:34;12.90;99.90
7588;DHT22;3835;48.850;8.938;2022-10-31T08:12:22;13.00;99.90
7588;DHT22;3835;48.850;8.938;2022-10-31T08:14:52;13.00;99.90
7588;DHT22;3835;48.850;8.938;2022-10-31T08:17:21;13.20;99.90
7588;DHT22;3835;48.850;8.938;2022-10-31T08:19:55;13.20;99.90
7588;DHT22;3835;48.850;8.938;2022-10-31T08:22:24;13.40;99.90
7588;DHT22;3835;48.850;8.938;2022-10-31T08:24:53;13.50;99.90
7588;DHT22;3835;48.850;8.938;2022-10-31T08:27:20;13.60;99.90
7588;DHT22;3835;48.850;8.938;2022-10-31T08:29:46;13.60;99.90
7588;DHT22;3835;48.850;8.938;2022-10-31T08:32:17;13.60;99.90
7588;DHT22;3835;48.850;8.938;2022-10-31T08:34:43;13.70;99.90
7588;DHT22;3835;48.850;8.938;2022-10-31T08:37:10;13.80;99.90
7588;DHT22;3835;48.850;8.938;2022-10-31T08:39:37;13.90;99.90
7588;DHT22;3835;48.850;8.938;2022-10-31T08:42:05;14.00;99.90
7588;DHT22;3835;48.850;8.938;2022-10-31T08:44:32;14.10;99.90
7588;DHT22;3835;48.850;8.938;2022-10-31T08:46:58;14.30;99.90
7588;DHT22;3835;48.850;8.938;2022-10-31T08:49:25;14.50;99.90
7588;DHT22;3835;48.850;8.938;2022-10-31T08:51:52;14.60;99.90
7588;DHT22;3835;48.850;8.938;2022-10-31T08:54:18;14.70;99.90
7588;DHT22;3835;48.850;8.938;2022-10-31T08:56:46;14.90;99.90
7588;DHT22;3835;48.850;8.938;2022-10-31T08:59:14;15.00;99.90
7588;DHT22;3835;48.850;8.938;2022-10-31T09:01:41;15.10;99.90
7588;DHT22;3835;48.850;8.938;2022-10-31T09:04:07;15.10;99.90
7588;DHT22;3835;48.850;8.938;2022-10-31T09:06:34;15.20;99.90
7588;DHT22;3835;48.850;8.938;2022-10-31T09:09:01;15.40;99.90
7588;DHT22;3835;48.850;8.938;2022-10-31T09:11:29;15.40;99.90
7588;DHT22;3835;48.850;8.938;2022-10-31T09:13:56;15.40;99.90
7588;DHT22;3835;48.850;8.938;2022-10-31T09:16:24;15.50;99.90
7588;DHT22;3835;48.850;8.938;2022-10-31T09:18:51;15.60;99.90
7588;DHT22;3835;48.850;8.938;2022-10-31T09:21:18;15.60;99.90
7588;DHT22;3835;48.850;8.938;2022-10-31T09:23:48;15.60;99.90
7588;DHT22;3835;48.850;8.938;2022-10-31T09:26:20;15.50;99.90
7588;DHT22;3835;48.850;8.938;2022-10-31T09:28:47;15.60;99.90
7588;DHT22;3835;48.850;8.938;2022-10-31T09:31:14;15.70;99.90
7588;DHT22;3835;48.850;8.938;2022-10-31T09:33:42;15.60;99.90
7588;DHT22;3835;48.850;8.938;2022-10-31T09:36:09;15.60;99.90
7588;DHT22;3835;48.850;8.938;2022-10-31T09:38:35;15.60;99.90
7588;DHT22;3835;48.850;8.938;2022-10-31T09:41:11;15.70;99.90
7588;DHT22;3835;48.850;8.938;2022-10-31T09:43:49;15.90;99.90
7588;DHT22;3835;48.850;8.938;2022-10-31T09:46:23;16.00;99.90
7588;DHT22;3835;48.850;8.938;2022-10-31T09:49:07;16.10;99.90
7588;DHT22;3835;48.850;8.938;2022-10-31T09:51:41;16.20;99.90
7588;DHT22;3835;48.850;8.938;2022-10-31T09:54:14;16.20;99.90
7588;DHT22;3835;48.850;8.938;2022-10-31T09:56:43;16.20;99.90
7588;DHT22;3835;48.850;8.938;2022-10-31T09:59:19;16.20;99.90
7588;DHT22;3835;48.850;8.938;2022-10-31T10:01:55;16.20;99.90
7588;DHT22;3835;48.850;8.938;2022-10-31T10:07:59;16.30;99.90
7588;DHT22;3835;48.850;8.938;2022-10-31T10:10:42;16.20;99.90
7588;DHT22;3835;48.850;8.938;2022-10-31T10:13:44;16.30;99.90
7588;DHT22;3835;48.850;8.938;2022-10-31T10:16:28;16.40;99.90
7588;DHT22;3835;48.850;8.938;2022-10-31T10:19:06;16.50;99.90
7588;DHT22;3835;48.850;8.938;2022-10-31T10:21:43;16.60;99.90
7588;DHT22;3835;48.850;8.938;2022-10-31T10:24:25;16.60;99.90
7588;DHT22;3835;48.850;8.938;2022-10-31T10:26:59;16.50;99.90
7588;DHT22;3835;48.850;8.938;2022-10-31T10:29:34;16.60;99.90
7588;DHT22;3835;48.850;8.938;2022-10-31T10:32:18;16.60;99.90
7588;DHT22;3835;48.850;8.938;2022-10-31T10:34:50;16.60;99.90
7588;DHT22;3835;48.850;8.938;2022-10-31T10:37:23;16.70;99.90
7588;DHT22;3835;48.850;8.938;2022-10-31T10:40:05;16.70;99.90
7588;DHT22;3835;48.850;8.938;2022-10-31T10:42:34;16.80;99.90
7588;DHT22;3835;48.850;8.938;2022-10-31T10:45:20;17.00;99.90
7588;DHT22;3835;48.850;8.938;2022-10-31T10:48:14;17.20;99.90
7588;DHT22;3835;48.850;8.938;2022-10-31T10:50:46;17.30;99.90
7588;DHT22;3835;48.850;8.938;2022-10-31T10:53:26;17.50;99.90
7588;DHT22;3835;48.850;8.938;2022-10-31T10:56:11;17.60;99.90
7588;DHT22;3835;48.850;8.938;2022-10-31T10:58:42;17.70;99.90
7588;DHT22;3835;48.850;8.938;2022-10-31T11:01:11;17.90;99.90
7588;DHT22;3835;48.850;8.938;2022-10-31T11:03:40;18.00;99.90
7588;DHT22;3835;48.850;8.938;2022-10-31T11:06:17;18.00;99.90
7588;DHT22;3835;48.850;8.938;2022-10-31T11:08:47;18.10;99.90
7588;DHT22;3835;48.850;8.938;2022-10-31T11:11:25;18.00;99.90
7588;DHT22;3835;48.850;8.938;2022-10-31T11:14:02;17.90;99.90
7588;DHT22;3835;48.850;8.938;2022-10-31T11:16:33;17.80;99.90
7588;DHT22;3835;48.850;8.938;2022-10-31T11:19:13;17.80;99.90
7588;DHT22;3835;48.850;8.938;2022-10-31T11:21:43;17.60;99.90
7588;DHT22;3835;48.850;8.938;2022-10-31T11:24:16;17.60;99.90
7588;DHT22;3835;48.850;8.938;2022-10-31T11:26:46;17.50;99.90
7588;DHT22;3835;48.850;8.938;2022-10-31T11:29:16;17.50;99.90
7588;DHT22;3835;48.850;8.938;2022-10-31T11:31:44;17.50;99.90
7588;DHT22;3835;48.850;8.938;2022-10-31T11:34:26;17.60;99.90
7588;DHT22;3835;48.850;8.938;2022-10-31T11:36:54;17.60;99.90
7588;DHT22;3835;48.850;8.938;2022-10-31T11:39:23;17.50;99.90
7588;DHT22;3835;48.850;8.938;2022-10-31T11:41:54;17.40;99.90
7588;DHT22;3835;48.850;8.938;2022-10-31T11:44:23;17.40;99.90
7588;DHT22;3835;48.850;8.938;2022-10-31T11:46:54;17.40;99.90
7588;DHT22;3835;48.850;8.938;2022-10-31T11:49:41;17.50;99.90
7588;DHT22;3835;48.850;8.938;2022-10-31T11:52:14;17.40;99.90
7588;DHT22;3835;48.850;8.938;2022-10-31T11:54:46;17.40;99.90
7588;DHT22;3835;48.850;8.938;2022-10-31T11:57:32;17.40;99.90
7588;DHT22;3835;48.850;8.938;2022-10-31T12:00:17;17.50;99.90
7588;DHT22;3835;48.850;8.938;2022-10-31T12:02:46;17.40;99.90
7588;DHT22;3835;48.850;8.938;2022-10-31T12:05:19;17.50;99.90
7588;DHT22;3835;48.850;8.938;2022-10-31T12:07:47;17.80;99.90
7588;DHT22;3835;48.850;8.938;2022-10-31T12:10:15;17.80;99.90
7588;DHT22;3835;48.850;8.938;2022-10-31T12:13:04;17.90;99.90
7588;DHT22;3835;48.850;8.938;2022-10-31T12:15:36;17.80;99.90
7588;DHT22;3835;48.850;8.938;2022-10-31T12:18:26;17.80;99.90
7588;DHT22;3835;48.850;8.938;2022-10-31T12:21:15;17.70;99.90
7588;DHT22;3835;48.850;8.938;2022-10-31T12:23:53;17.70;99.90
7588;DHT22;3835;48.850;8.938;2022-10-31T12:26:26;17.70;99.90
7588;DHT22;3835;48.850;8.938;2022-10-31T12:29:15;17.70;99.90
7588;DHT22;3835;48.850;8.938;2022-10-31T12:31:52;17.80;99.90
7588;DHT22;3835;48.850;8.938;2022-10-31T12:34:38;17.70;99.90
7588;DHT22;3835;48.850;8.938;2022-10-31T12:37:19;17.70;99.90
7588;DHT22;3835;48.850;8.938;2022-10-31T12:39:56;17.60;99.90
7588;DHT22;3835;48.850;8.938;2022-10-31T12:42:40;17.70;99.90
7588;DHT22;3835;48.850;8.938;2022-10-31T12:45:28;17.80;99.90
7588;DHT22;3835;48.850;8.938;2022-10-31T12:48:08;17.80;99.90
7588;DHT22;3835;48.850;8.938;2022-10-31T12:50:50;17.70;99.90
7588;DHT22;3835;48.850;8.938;2022-10-31T12:53:28;17.50;99.90
7588;DHT22;3835;48.850;8.938;2022-10-31T12:56:07;17.40;99.90
7588;DHT22;3835;48.850;8.938;2022-10-31T12:58:42;17.30;99.90
7588;DHT22;3835;48.850;8.938;2022-10-31T13:01:14;17.20;99.90
7588;DHT22;3835;48.850;8.938;2022-10-31T13:03:48;17.10;99.90
7588;DHT22;3835;48.850;8.938;2022-10-31T13:06:20;17.10;99.90
7588;DHT22;3835;48.850;8.938;2022-10-31T13:08:51;17.00;99.90
7588;DHT22;3835;48.850;8.938;2022-10-31T13:11:22;16.90;99.90
7588;DHT22;3835;48.850;8.938;2022-10-31T13:13:56;16.80;99.90
7588;DHT22;3835;48.850;8.938;2022-10-31T13:16:29;16.80;99.90
7588;DHT22;3835;48.850;8.938;2022-10-31T13:19:00;16.70;99.90
7588;DHT22;3835;48.850;8.938;2022-10-31T13:21:36;16.70;99.90
7588;DHT22;3835;48.850;8.938;2022-10-31T13:24:09;16.70;99.90
7588;DHT22;3835;48.850;8.938;2022-10-31T13:26:41;16.70;99.90
7588;DHT22;3835;48.850;8.938;2022-10-31T13:29:17;16.70;99.90
7588;DHT22;3835;48.850;8.938;2022-10-31T13:31:46;16.80;99.90
7588;DHT22;3835;48.850;8.938;2022-10-31T13:34:22;17.20;99.90
7588;DHT22;3835;48.850;8.938;2022-10-31T13:36:57;17.50;99.90
7588;DHT22;3835;48.850;8.938;2022-10-31T13:39:32;17.40;99.90
7588;DHT22;3835;48.850;8.938;2022-10-31T13:42:07;17.40;99.90
7588;DHT22;3835;48.850;8.938;2022-10-31T13:44:36;17.50;99.90
7588;DHT22;3835;48.850;8.938;2022-10-31T13:47:25;17.60;99.90
7588;DHT22;3835;48.850;8.938;2022-10-31T13:50:03;17.70;99.90
7588;DHT22;3835;48.850;8.938;2022-10-31T13:52:30;17.60;99.90
7588;DHT22;3835;48.850;8.938;2022-10-31T13:54:57;17.70;99.90
7588;DHT22;3835;48.850;8.938;2022-10-31T13:57:33;17.70;99.90
7588;DHT22;3835;48.850;8.938;2022-10-31T14:00:04;17.60;99.90
7588;DHT22;3835;48.850;8.938;2022-10-31T14:02:34;17.40;99.90
7588;DHT22;3835;48.850;8.938;2022-10-31T14:05:04;17.20;99.90
7588;DHT22;3835;48.850;8.938;2022-10-31T14:07:32;17.10;99.90
7588;DHT22;3835;48.850;8.938;2022-10-31T14:10:02;17.00;99.90
7588;DHT22;3835;48.850;8.938;2022-10-31T14:12:33;17.00;99.90
7588;DHT22;3835;48.850;8.938;2022-10-31T14:15:04;17.00;99.90
7588;DHT22;3835;48.850;8.938;2022-10-31T14:17:44;17.00;99.90
7588;DHT22;3835;48.850;8.938;2022-10-31T14:20:34;17.00;99.90
7588;DHT22;3835;48.850;8.938;2022-10-31T14:25:52;16.80;99.90
7588;DHT22;3835;48.850;8.938;2022-10-31T14:28:21;16.80;99.90
7588;DHT22;3835;48.850;8.938;2022-10-31T14:30:52;16.80;99.90
7588;DHT22;3835;48.850;8.938;2022-10-31T14:33:22;16.90;99.90
7588;DHT22;3835;48.850;8.938;2022-10-31T14:35:55;16.90;99.90
7588;DHT22;3835;48.850;8.938;2022-10-31T14:38:48;16.90;99.90
7588;DHT22;3835;48.850;8.938;2022-10-31T14:41:33;16.90;99.90
7588;DHT22;3835;48.850;8.938;2022-10-31T14:44:26;16.90;99.90
7588;DHT22;3835;48.850;8.938;2022-10-31T14:47:02;16.90;99.90
7588;DHT22;3835;48.850;8.938;2022-10-31T14:49:55;17.00;99.90
7588;DHT22;3835;48.850;8.938;2022-10-31T14:52:24;17.00;99.90
7588;DHT22;3835;48.850;8.938;2022-10-31T14:54:53;17.00;99.90
7588;DHT22;3835;48.850;8.938;2022-10-31T14:57:22;16.90;99.90
7588;DHT22;3835;48.850;8.938;2022-10-31T14:59:53;16.90;99.90
7588;DHT22;3835;48.850;8.938;2022-10-31T15:02:25;16.90;99.90
7588;DHT22;3835;48.850;8.938;2022-10-31T15:04:55;16.90;99.90
7588;DHT22;3835;48.850;8.938;2022-10-31T15:07:25;16.80;99.90
7588;DHT22;3835;48.850;8.938;2022-10-31T15:09:56;16.80;99.90
7588;DHT22;3835;48.850;8.938;2022-10-31T15:12:25;16.60;99.90
7588;DHT22;3835;48.850;8.938;2022-10-31T15:14:52;16.60;99.90
7588;DHT22;3835;48.850;8.938;2022-10-31T15:17:19;16.50;99.90
7588;DHT22;3835;48.850;8.938;2022-10-31T15:19:47;16.30;99.90
7588;DHT22;3835;48.850;8.938;2022-10-31T15:22:16;16.20;99.90
7588;DHT22;3835;48.850;8.938;2022-10-31T15:24:44;16.20;99.90
7588;DHT22;3835;48.850;8.938;2022-10-31T15:27:13;16.00;99.90
7588;DHT22;3835;48.850;8.938;2022-10-31T15:29:48;15.90;99.90
7588;DHT22;3835;48.850;8.938;2022-10-31T15:32:20;15.90;99.90
7588;DHT22;3835;48.850;8.938;2022-10-31T15:34:49;15.80;99.90
7588;DHT22;3835;48.850;8.938;2022-10-31T15:37:18;15.70;99.90
7588;DHT22;3835;48.850;8.938;2022-10-31T15:39:47;15.60;99.90
7588;DHT22;3835;48.850;8.938;2022-10-31T15:42:19;15.50;99.90
7588;DHT22;3835;48.850;8.938;2022-10-31T15:44:50;15.50;99.90
7588;DHT22;3835;48.850;8.938;2022-10-31T15:47:20;15.40;99.90
7588;DHT22;3835;48.850;8.938;2022-10-31T15:49:50;15.30;99.90
7588;DHT22;3835;48.850;8.938;2022-10-31T15:52:25;15.20;99.90
7588;DHT22;3835;48.850;8.938;2022-10-31T15:54:57;15.10;99.90
7588;DHT22;3835;48.850;8.938;2022-10-31T15:57:25;15.00;99.90
7588;DHT22;3835;48.850;8.938;2022-10-31T15:59:53;14.90;99.90
7588;DHT22;3835;48.850;8.938;2022-10-31T16:02:22;14.90;99.90
7588;DHT22;3835;48.850;8.938;2022-10-31T16:04:52;14.70;99.90
7588;DHT22;3835;48.850;8.938;2022-10-31T16:07:21;14.70;99.90
7588;DHT22;3835;48.850;8.938;2022-10-31T16:09:52;14.60;99.90
7588;DHT22;3835;48.850;8.938;2022-10-31T16:12:20;14.40;99.90
7588;DHT22;3835;48.850;8.938;2022-10-31T16:14:47;14.30;99.90
7588;DHT22;3835;48.850;8.938;2022-10-31T16:17:17;14.10;99.90
7588;DHT22;3835;48.850;8.938;2022-10-31T16:19:50;14.00;99.90
7588;DHT22;3835;48.850;8.938;2022-10-31T16:22:25;13.90;99.90
7588;DHT22;3835;48.850;8.938;2022-10-31T16:24:58;13.80;99.90
7588;DHT22;3835;48.850;8.938;2022-10-31T16:27:28;13.70;99.90
7588;DHT22;3835;48.850;8.938;2022-10-31T16:29:57;13.70;99.90
7588;DHT22;3835;48.850;8.938;2022-10-31T16:32:29;13.70;99.90
7588;DHT22;3835;48.850;8.938;2022-10-31T16:35:01;13.60;99.90
7588;DHT22;3835;48.850;8.938;2022-10-31T16:37:30;13.50;99.90
7588;DHT22;3835;48.850;8.938;2022-10-31T16:39:56;13.50;99.90